createdAt,value
2022-08-13T00:00:54.547Z,4.4
2022-08-13T00:02:00.724Z,4.69
2022-08-13T00:03:06.892Z,4.5
2022-08-13T00:04:13.087Z,4.4
2022-08-13T00:05:19.238Z,4.8
2022-08-13T00:06:25.441Z,4.5
2022-08-13T00:07:31.634Z,4.5
2022-08-13T00:08:37.812Z,4.4
2022-08-13T00:09:43.952Z,4.5
2022-08-13T00:10:50.136Z,4.4
2022-08-13T00:11:55.328Z,4.3
2022-08-13T00:13:01.503Z,4.8
2022-08-13T00:14:07.718Z,4.4
2022-08-13T00:15:13.891Z,4.69
2022-08-13T00:16:19.049Z,4.8
2022-08-13T00:17:25.255Z,4.6
2022-08-13T00:18:31.453Z,4.6
2022-08-13T00:19:37.597Z,4.69
2022-08-13T00:20:43.789Z,4.6
2022-08-13T00:21:49.974Z,4.8
2022-08-13T00:22:56.171Z,4.8
2022-08-13T00:24:02.323Z,4.4
2022-08-13T00:25:08.511Z,4.5
2022-08-13T00:26:14.710Z,4.69
2022-08-13T00:27:20.879Z,4.6
2022-08-13T00:28:27.099Z,4.6
2022-08-13T00:29:33.266Z,4.5
2022-08-13T00:30:38.466Z,4.6
2022-08-13T00:31:44.622Z,4.3
2022-08-13T00:32:50.803Z,4.3
2022-08-13T00:33:57.008Z,4.4
2022-08-13T00:35:03.151Z,4.3
2022-08-13T00:36:09.352Z,4.5
2022-08-13T00:37:15.513Z,4.4
2022-08-13T00:38:21.738Z,4.4
2022-08-13T00:39:27.875Z,4.3
2022-08-13T00:40:34.043Z,4.4
2022-08-13T00:41:40.222Z,4.69
2022-08-13T00:42:46.394Z,4.69
2022-08-13T00:43:52.566Z,4.4
2022-08-13T00:44:57.764Z,4.69
2022-08-13T00:46:03.931Z,4.69
2022-08-13T00:47:10.191Z,4.3
2022-08-13T00:48:16.320Z,4.5
2022-08-13T00:49:22.471Z,4.3
2022-08-13T00:50:28.669Z,4.8
2022-08-13T00:51:34.825Z,4.9
2022-08-13T00:52:41.010Z,4.5
2022-08-13T00:53:47.184Z,4.6
2022-08-13T00:54:53.364Z,4.69
2022-08-13T00:55:59.562Z,4.5
2022-08-13T00:57:05.722Z,4.5
2022-08-13T00:58:11.915Z,4.3
2022-08-13T00:59:17.139Z,4.6
2022-08-13T01:00:23.293Z,4.4
2022-08-13T01:01:29.477Z,4.4
2022-08-13T01:02:35.680Z,4.5
2022-08-13T01:03:41.835Z,4.5
2022-08-13T01:04:48.040Z,4.6
2022-08-13T01:05:54.234Z,4.69
2022-08-13T01:07:00.408Z,4.19
2022-08-13T01:08:06.566Z,4.6
2022-08-13T01:09:12.736Z,4.5
2022-08-13T01:10:18.916Z,4.8
2022-08-13T01:11:25.088Z,4.6
2022-08-13T01:12:31.302Z,4.8
2022-08-13T01:13:36.468Z,4.8
2022-08-13T01:14:42.653Z,4.9
2022-08-13T01:15:48.796Z,5
2022-08-13T01:16:54.975Z,5
2022-08-13T01:18:01.178Z,5.1
2022-08-13T01:19:07.363Z,5.1
2022-08-13T01:20:13.520Z,5.2
2022-08-13T01:21:19.727Z,4.9
2022-08-13T01:22:25.874Z,4.8
2022-08-13T01:23:32.053Z,5.2
2022-08-13T01:24:38.228Z,5
2022-08-13T01:25:44.462Z,5
2022-08-13T01:26:50.633Z,5.1
2022-08-13T01:27:55.793Z,5.2
2022-08-13T01:29:01.968Z,5.2
2022-08-13T01:30:08.145Z,5.4
2022-08-13T01:31:14.313Z,5.4
2022-08-13T01:32:20.526Z,5.2
2022-08-13T01:33:26.709Z,5.2
2022-08-13T01:34:32.874Z,5.4
2022-08-13T01:35:39.058Z,5.8
2022-08-13T01:36:45.213Z,5.5
2022-08-13T01:37:51.404Z,5.5
2022-08-13T01:38:57.608Z,5.8
2022-08-13T01:40:03.793Z,5.6
2022-08-13T01:41:09.957Z,6.1
2022-08-13T01:42:15.171Z,5.6
2022-08-13T01:43:21.315Z,5.7
2022-08-13T01:44:27.496Z,5.6
2022-08-13T01:45:33.687Z,6
2022-08-13T01:46:39.866Z,5.9
2022-08-13T01:47:46.031Z,5.5
2022-08-13T01:48:52.222Z,5.5
2022-08-13T01:49:58.383Z,5.9
2022-08-13T01:51:04.595Z,5.5
2022-08-13T01:52:10.771Z,5.7
2022-08-13T01:53:16.952Z,5.6
2022-08-13T01:54:23.114Z,5.4
2022-08-13T01:55:29.310Z,5.3
2022-08-13T01:56:34.504Z,5.6
2022-08-13T01:57:40.680Z,5.4
2022-08-13T01:58:46.867Z,5.5
2022-08-13T01:59:53.069Z,5.3
2022-08-13T02:00:59.235Z,5.4
2022-08-13T02:02:05.442Z,5.2
2022-08-13T02:03:11.637Z,5.3
2022-08-13T02:04:17.807Z,4.9
2022-08-13T02:05:23.960Z,5.4
2022-08-13T02:06:30.160Z,5.3
2022-08-13T02:07:36.329Z,5.3
2022-08-13T02:08:42.550Z,6
2022-08-13T02:09:48.700Z,5.5
2022-08-13T02:10:53.925Z,5.6
2022-08-13T02:12:00.125Z,5.7
2022-08-13T02:13:06.274Z,5.7
2022-08-13T02:14:12.505Z,5.7
2022-08-13T02:15:18.684Z,5.5
2022-08-13T02:16:24.836Z,5.8
2022-08-13T02:17:31.009Z,5.9
2022-08-13T02:18:37.233Z,6
2022-08-13T02:19:43.373Z,5.9
2022-08-13T02:20:49.594Z,6
2022-08-13T02:21:55.742Z,6.3
2022-08-13T02:23:01.939Z,6.4
2022-08-13T02:24:08.117Z,6.1
2022-08-13T02:25:13.303Z,6.4
2022-08-13T02:26:19.515Z,6.4
2022-08-13T02:27:25.664Z,6.5
2022-08-13T02:28:31.879Z,6.4
2022-08-13T02:29:38.054Z,6.7
2022-08-13T02:30:44.255Z,6.1
2022-08-13T02:31:50.401Z,6.6
2022-08-13T02:32:56.589Z,6
2022-08-13T02:34:02.770Z,5.8
2022-08-13T02:35:08.957Z,5.9
2022-08-13T02:36:15.128Z,6.2
2022-08-13T02:37:21.304Z,6.3
2022-08-13T02:38:27.490Z,6
2022-08-13T02:39:32.706Z,6
2022-08-13T02:40:38.895Z,5.7
2022-08-13T02:41:45.063Z,5.8
2022-08-13T02:42:51.221Z,6
2022-08-13T02:43:57.389Z,6
2022-08-13T02:45:03.572Z,5.8
2022-08-13T02:46:09.755Z,5.6
2022-08-13T02:47:15.940Z,5.8
2022-08-13T02:48:22.144Z,5.8
2022-08-13T02:49:28.318Z,6.3
2022-08-13T02:50:34.481Z,6.1
2022-08-13T02:51:40.671Z,6.4
2022-08-13T02:52:46.855Z,6.4
2022-08-13T02:53:52.052Z,6.8
2022-08-13T02:54:58.262Z,6.9
2022-08-13T02:56:04.419Z,7.1
2022-08-13T02:57:10.602Z,7
2022-08-13T02:58:16.782Z,6.6
2022-08-13T02:59:22.991Z,6.9
2022-08-13T03:00:29.156Z,6.5
2022-08-13T03:01:35.352Z,6.5
2022-08-13T03:02:41.567Z,6.3
2022-08-13T03:03:47.708Z,6.3
2022-08-13T03:04:53.928Z,5.9
2022-08-13T03:06:00.099Z,6.2
2022-08-13T03:07:06.269Z,6.6
2022-08-13T03:08:11.500Z,6.6
2022-08-13T03:09:17.672Z,6.5
2022-08-13T03:10:23.829Z,6.8
2022-08-13T03:11:30.021Z,6.8
2022-08-13T03:12:36.225Z,7
2022-08-13T03:13:42.386Z,7
2022-08-13T03:14:48.558Z,6.9
2022-08-13T03:15:54.759Z,7.2
2022-08-13T03:17:00.962Z,7
2022-08-13T03:18:07.126Z,7
2022-08-13T03:19:13.326Z,7.1
2022-08-13T03:20:19.479Z,7.2
2022-08-13T03:21:25.659Z,6.7
2022-08-13T03:22:30.853Z,7.2
2022-08-13T03:23:37.044Z,6.8
2022-08-13T03:24:43.257Z,7.2
2022-08-13T03:25:49.405Z,6.6
2022-08-13T03:26:55.608Z,7.1
2022-08-13T03:28:01.840Z,7.1
2022-08-13T03:29:08.020Z,7.6
2022-08-13T03:30:14.172Z,7.5
2022-08-13T03:31:20.349Z,7.2
2022-08-13T03:32:26.546Z,7.2
2022-08-13T03:33:32.748Z,7.2
2022-08-13T03:34:38.909Z,7.7
2022-08-13T03:35:45.111Z,7.6
2022-08-13T03:36:50.293Z,7.4
2022-08-13T03:37:56.479Z,7.3
2022-08-13T03:39:02.676Z,6.8
2022-08-13T03:40:08.862Z,6.8
2022-08-13T03:41:15.057Z,6.9
2022-08-13T03:42:21.239Z,7.2
2022-08-13T03:43:27.405Z,7.1
2022-08-13T03:44:33.598Z,7.1
2022-08-13T03:45:39.795Z,7.3
2022-08-13T03:46:46.020Z,7.2
2022-08-13T03:47:52.176Z,7.7
2022-08-13T03:48:58.379Z,7.6
2022-08-13T03:50:04.579Z,7.4
2022-08-13T03:51:09.788Z,7.2
2022-08-13T03:52:15.946Z,7.5
2022-08-13T03:53:22.141Z,7.7
2022-08-13T03:54:28.345Z,8
2022-08-13T03:55:34.582Z,7.5
2022-08-13T03:56:40.750Z,7.4
2022-08-13T03:57:46.898Z,7.9
2022-08-13T03:58:52.120Z,7.6
2022-08-13T03:59:58.308Z,7.3
2022-08-13T04:01:04.530Z,7.8
2022-08-13T04:02:10.729Z,7.3
2022-08-13T04:03:16.903Z,7.4
2022-08-13T04:04:23.064Z,7.8
2022-08-13T04:05:29.299Z,7.8
2022-08-13T04:06:35.476Z,8
2022-08-13T04:07:41.667Z,7.4
2022-08-13T04:08:47.861Z,7.9
2022-08-13T04:09:54.032Z,8.1
2022-08-13T04:11:00.247Z,7.7
2022-08-13T04:12:06.426Z,7.7
2022-08-13T04:13:11.618Z,8.2
2022-08-13T04:14:17.829Z,7.8
2022-08-13T04:15:24.000Z,7.8
2022-08-13T04:16:30.210Z,8
2022-08-13T04:17:36.390Z,8.1
2022-08-13T04:18:42.620Z,8.2
2022-08-13T04:19:48.765Z,7.9
2022-08-13T04:20:54.973Z,7.6
2022-08-13T04:22:01.150Z,7.7
2022-08-13T04:23:07.348Z,7.3
2022-08-13T04:24:13.525Z,7.4
2022-08-13T04:25:19.724Z,7.6
2022-08-13T04:26:25.934Z,7.5
2022-08-13T04:27:31.135Z,7.3
2022-08-13T04:28:37.322Z,7.5
2022-08-13T04:29:43.498Z,7.3
2022-08-13T04:30:49.676Z,7.2
2022-08-13T04:31:55.859Z,7.2
2022-08-13T04:33:02.041Z,7.1
2022-08-13T04:34:08.219Z,7.1
2022-08-13T04:35:14.421Z,7.2
2022-08-13T04:36:20.587Z,7.4
2022-08-13T04:37:26.798Z,7.6
2022-08-13T04:38:32.959Z,7.7
2022-08-13T04:39:39.133Z,7.9
2022-08-13T04:40:45.309Z,7.8
2022-08-13T04:41:50.547Z,7.8
2022-08-13T04:42:56.701Z,7.9
2022-08-13T04:44:02.883Z,7.8
2022-08-13T04:45:09.071Z,7.4
2022-08-13T04:46:15.241Z,7.5
2022-08-13T04:47:21.439Z,7.4
2022-08-13T04:48:27.603Z,7.6
2022-08-13T04:49:33.780Z,7.2
2022-08-13T04:50:39.978Z,7.5
2022-08-13T04:51:46.138Z,7.6
2022-08-13T04:52:52.307Z,7.5
2022-08-13T04:53:58.486Z,7.6
2022-08-13T04:55:04.685Z,7.5
2022-08-13T04:56:09.873Z,7.7
2022-08-13T04:57:16.042Z,7.5
2022-08-13T04:58:22.217Z,7.8
2022-08-13T04:59:28.357Z,7.4
2022-08-13T05:00:34.517Z,7.6
2022-08-13T05:01:40.694Z,7.5
2022-08-13T05:02:46.877Z,7.6
2022-08-13T05:03:53.032Z,7.9
2022-08-13T05:04:59.182Z,7.8
2022-08-13T05:06:05.349Z,7.8
2022-08-13T05:07:11.506Z,7.7
2022-08-13T05:08:17.674Z,7.5
2022-08-13T05:09:23.869Z,7.6
2022-08-13T05:10:29.018Z,7.8
2022-08-13T05:11:35.221Z,7.5
2022-08-13T05:12:41.332Z,7.4
2022-08-13T05:13:47.501Z,7.3
2022-08-13T05:14:53.629Z,7.7
2022-08-13T05:15:59.773Z,7.7
2022-08-13T05:17:05.965Z,7.9
2022-08-13T05:18:12.062Z,7.3
2022-08-13T05:19:18.207Z,7.8
2022-08-13T05:20:24.311Z,7.9
2022-08-13T05:21:30.430Z,8.5
2022-08-13T05:22:36.549Z,8.5
2022-08-13T05:23:42.680Z,8.2
2022-08-13T05:24:48.783Z,7.9
2022-08-13T05:26:05.316Z,7.9
2022-08-13T05:27:00.944Z,7.2
2022-08-13T05:28:07.031Z,7.1
2022-08-13T05:30:19.152Z,7
2022-08-13T05:31:25.212Z,7
2022-08-13T05:32:31.305Z,6.9
2022-08-13T05:33:37.350Z,7.9
2022-08-13T05:34:43.392Z,7.8
2022-08-13T05:35:49.434Z,8.89
2022-08-13T05:36:55.461Z,7
2022-08-13T05:38:08.065Z,6.8
2022-08-13T05:39:07.552Z,6.6
2022-08-13T05:40:13.563Z,6.8
2022-08-13T05:41:19.574Z,6.6
2022-08-13T05:42:25.639Z,6.7
2022-08-13T05:43:31.613Z,6.5
2022-08-13T05:44:37.620Z,6.4
2022-08-13T05:45:43.619Z,6.6
2022-08-13T05:46:49.649Z,6.7
2022-08-13T05:47:55.597Z,6.9
2022-08-13T05:49:01.621Z,6.7
2022-08-13T05:50:07.597Z,6.8
2022-08-13T05:51:13.638Z,6.9
2022-08-13T05:52:19.680Z,7.2
2022-08-13T05:53:25.726Z,6.8
2022-08-13T05:54:31.771Z,6.5
2022-08-13T05:55:37.809Z,6.4
2022-08-13T05:56:43.863Z,6.9
2022-08-13T05:57:49.883Z,6.8
2022-08-13T05:58:55.947Z,6.5
2022-08-13T06:00:01.948Z,6.3
2022-08-13T06:01:07.976Z,6.3
2022-08-13T06:02:14.027Z,6.6
2022-08-13T06:03:20.030Z,6.7
2022-08-13T06:04:26.060Z,6.3
2022-08-13T06:05:32.206Z,6.6
2022-08-13T06:06:38.384Z,6.4
2022-08-13T06:07:44.523Z,6.2
2022-08-13T06:08:50.658Z,6.4
2022-08-13T06:09:56.780Z,6.4
2022-08-13T06:11:02.930Z,6.4
2022-08-13T06:12:09.074Z,6.4
2022-08-13T06:13:15.172Z,6.2
2022-08-13T06:14:21.294Z,7.2
2022-08-13T06:15:27.419Z,7.6
2022-08-13T06:16:33.541Z,6.7
2022-08-13T06:17:39.653Z,6.2
2022-08-13T06:18:45.789Z,6.8
2022-08-13T06:19:52.148Z,6.6
2022-08-13T06:20:57.399Z,6.8
2022-08-13T06:22:03.330Z,6.6
2022-08-13T06:23:09.225Z,6.1
2022-08-13T06:24:15.134Z,6.2
2022-08-13T06:25:21.043Z,7.1
2022-08-13T06:26:26.957Z,6.2
2022-08-13T06:27:32.860Z,6.2
2022-08-13T06:28:38.780Z,5.9
2022-08-13T06:29:44.670Z,6.2
2022-08-13T06:30:50.575Z,6.1
2022-08-13T06:31:56.472Z,6
2022-08-13T06:33:02.368Z,6.2
2022-08-13T06:34:08.319Z,6.1
2022-08-13T06:35:14.169Z,6.1
2022-08-13T06:36:20.076Z,6
2022-08-13T06:37:25.949Z,6.1
2022-08-13T06:38:31.836Z,6.3
2022-08-13T06:39:37.728Z,6
2022-08-13T06:40:43.610Z,6
2022-08-13T06:41:49.497Z,6.3
2022-08-13T06:42:55.381Z,5.8
2022-08-13T06:44:01.283Z,5.7
2022-08-13T06:45:07.146Z,5.8
2022-08-13T06:46:13.024Z,5.6
2022-08-13T06:47:18.903Z,5.9
2022-08-13T06:48:24.857Z,5.9
2022-08-13T06:49:30.816Z,6
2022-08-13T06:50:36.779Z,6.7
2022-08-13T06:51:42.730Z,5.7
2022-08-13T06:52:48.695Z,6.1
2022-08-13T06:53:54.652Z,6.3
2022-08-13T06:55:00.606Z,5.9
2022-08-13T06:56:06.564Z,8.1
2022-08-13T06:57:12.524Z,10.3
2022-08-13T06:58:18.469Z,8.3
2022-08-13T06:59:24.431Z,6.5
2022-08-13T07:00:30.385Z,5.8
2022-08-13T07:01:36.344Z,5.8
2022-08-13T07:02:42.411Z,5.7
2022-08-13T07:03:48.485Z,5.7
2022-08-13T07:04:54.565Z,5.6
2022-08-13T07:06:00.640Z,5.6
2022-08-13T07:07:06.709Z,5.6
2022-08-13T07:08:12.765Z,5.4
2022-08-13T07:09:18.850Z,5.7
2022-08-13T07:10:24.910Z,5.8
2022-08-13T07:11:30.972Z,6.8
2022-08-13T07:12:37.046Z,5.7
2022-08-13T07:13:43.121Z,5.9
2022-08-13T07:14:49.180Z,5.6
2022-08-13T07:15:55.267Z,5.6
2022-08-13T07:18:29.781Z,5.7
2022-08-13T07:19:36.098Z,5.5
2022-08-13T07:20:42.403Z,5.5
2022-08-13T07:21:48.731Z,5.4
2022-08-13T07:22:55.020Z,5.6
2022-08-13T07:24:01.324Z,5.8
2022-08-13T07:25:07.636Z,5.5
2022-08-13T07:26:13.915Z,5.8
2022-08-13T07:27:20.244Z,5.1
2022-08-13T07:28:26.535Z,5.4
2022-08-13T07:29:32.841Z,5.2
2022-08-13T07:30:39.139Z,5.3
2022-08-13T07:31:45.441Z,5.4
2022-08-13T07:35:06.892Z,5.3
2022-08-13T07:37:00.376Z,5.5
2022-08-13T07:38:06.244Z,5.1
2022-08-13T07:39:12.106Z,5.4
2022-08-13T07:40:17.958Z,5.4
2022-08-13T07:41:23.826Z,5.6
2022-08-13T07:42:29.700Z,5.2
2022-08-13T07:43:35.562Z,5.4
2022-08-13T07:44:41.426Z,5.4
2022-08-13T07:45:47.320Z,6.7
2022-08-13T07:46:53.165Z,4.9
2022-08-13T07:47:59.039Z,5
2022-08-13T07:49:04.897Z,4.69
2022-08-13T07:50:10.756Z,5
2022-08-13T07:51:16.635Z,4.9
2022-08-13T07:52:22.507Z,4.69
2022-08-13T07:53:28.368Z,4.8
2022-08-13T07:54:34.237Z,4.8
2022-08-13T07:55:40.114Z,4.9
2022-08-13T07:56:45.981Z,4.9
2022-08-13T07:57:51.854Z,5.2
2022-08-13T07:58:57.702Z,5
2022-08-13T08:00:03.585Z,5.1
2022-08-13T08:01:09.471Z,5.2
2022-08-13T08:02:15.346Z,5.3
2022-08-13T08:03:21.236Z,5.2
2022-08-13T08:04:27.185Z,5.2
2022-08-13T08:05:33.150Z,5
2022-08-13T08:06:39.105Z,5.5
2022-08-13T08:07:45.062Z,5.5
2022-08-13T08:08:51.038Z,5.4
2022-08-13T08:09:56.989Z,5.7
2022-08-13T08:11:02.961Z,6.2
2022-08-13T08:12:08.916Z,5.7
2022-08-13T08:13:14.878Z,5.5
2022-08-13T08:14:20.843Z,5.5
2022-08-13T08:15:26.820Z,5.4
2022-08-13T08:16:32.780Z,5.5
2022-08-13T08:17:38.749Z,5.4
2022-08-13T08:18:44.849Z,5.8
2022-08-13T08:19:50.961Z,5.7
2022-08-13T08:20:57.063Z,5.6
2022-08-13T08:22:03.179Z,5.7
2022-08-13T08:23:09.270Z,6.1
2022-08-13T08:24:15.375Z,5.9
2022-08-13T08:25:21.487Z,5.8
2022-08-13T08:26:27.570Z,6.3
2022-08-13T08:27:33.677Z,5.9
2022-08-13T08:28:39.774Z,5.8
2022-08-13T08:29:45.883Z,5.5
2022-08-13T08:30:51.963Z,5.8
2022-08-13T08:31:58.060Z,5.7
2022-08-13T08:33:04.413Z,5.9
2022-08-13T08:34:10.768Z,5.8
2022-08-13T08:35:17.101Z,5.5
2022-08-13T08:36:22.345Z,5.7
2022-08-13T08:37:28.267Z,6.1
2022-08-13T08:38:34.167Z,6
2022-08-13T08:39:40.092Z,6.1
2022-08-13T08:40:45.989Z,6
2022-08-13T08:41:51.897Z,6.8
2022-08-13T08:42:57.816Z,6
2022-08-13T08:44:03.725Z,6.6
2022-08-13T08:45:09.624Z,6.1
2022-08-13T08:46:15.539Z,6.9
2022-08-13T08:47:21.453Z,6.1
2022-08-13T08:48:27.367Z,6.3
2022-08-13T08:49:33.295Z,6.3
2022-08-13T08:50:39.211Z,6.4
2022-08-13T08:51:45.144Z,6.5
2022-08-13T08:52:51.078Z,6.8
2022-08-13T08:53:57.000Z,6.3
2022-08-13T08:55:02.933Z,6.6
2022-08-13T08:56:08.877Z,6.8
2022-08-13T08:57:14.831Z,6.9
2022-08-13T08:58:20.810Z,6.6
2022-08-13T08:59:26.741Z,6.4
2022-08-13T09:00:32.703Z,6.7
2022-08-13T09:01:38.672Z,7.2
2022-08-13T09:02:44.647Z,6.7
2022-08-13T09:03:50.684Z,6.8
2022-08-13T09:04:56.741Z,6.6
2022-08-13T09:06:02.795Z,6.7
2022-08-13T09:07:08.847Z,6.6
2022-08-13T09:08:14.906Z,7
2022-08-13T09:09:20.967Z,6.6
2022-08-13T09:10:27.024Z,6.8
2022-08-13T09:11:33.092Z,6.8
2022-08-13T09:12:39.163Z,6.9
2022-08-13T09:13:45.235Z,7.1
2022-08-13T09:14:51.321Z,7
2022-08-13T09:15:57.387Z,7
2022-08-13T09:17:03.471Z,6.8
2022-08-13T09:18:09.679Z,7.2
2022-08-13T09:19:15.875Z,7.2
2022-08-13T09:20:22.092Z,7.1
2022-08-13T09:21:28.299Z,7
2022-08-13T09:22:34.500Z,7.1
2022-08-13T09:23:40.717Z,7
2022-08-13T09:24:46.943Z,6.9
2022-08-13T09:25:53.146Z,7.2
2022-08-13T09:26:59.369Z,7.3
2022-08-13T09:28:05.622Z,7.5
2022-08-13T09:29:11.801Z,7.4
2022-08-13T09:30:18.008Z,7.2
2022-08-13T09:31:24.221Z,7.6
2022-08-13T09:32:30.697Z,7.1
2022-08-13T09:33:36.047Z,7.3
2022-08-13T09:34:42.058Z,7.5
2022-08-13T09:35:48.089Z,6.8
2022-08-13T09:36:54.101Z,7.1
2022-08-13T09:38:00.122Z,6.8
2022-08-13T09:39:06.151Z,7.4
2022-08-13T09:40:12.160Z,7
2022-08-13T09:41:18.184Z,6.7
2022-08-13T09:42:24.285Z,6.9
2022-08-13T09:43:30.237Z,6.8
2022-08-13T09:44:36.274Z,6.8
2022-08-13T09:45:42.294Z,6.8
2022-08-13T09:46:48.323Z,6.6
2022-08-13T09:47:54.340Z,6.6
2022-08-13T09:49:00.378Z,7
2022-08-13T09:50:06.402Z,6.9
2022-08-13T09:51:12.432Z,6.6
2022-08-13T09:52:18.463Z,6.9
2022-08-13T09:53:24.490Z,6.6
2022-08-13T09:54:30.546Z,7
2022-08-13T09:55:36.557Z,6.9
2022-08-13T09:56:42.591Z,6.8
2022-08-13T09:57:48.625Z,6.7
2022-08-13T09:58:54.677Z,6.7
2022-08-13T10:00:00.713Z,6.9
2022-08-13T10:01:06.826Z,6.6
2022-08-13T10:02:12.942Z,7
2022-08-13T10:03:19.057Z,7
2022-08-13T10:04:25.168Z,6.7
2022-08-13T10:05:31.279Z,6.7
2022-08-13T10:06:37.394Z,6.9
2022-08-13T10:07:43.503Z,6.3
2022-08-13T10:08:49.614Z,6.9
2022-08-13T10:09:55.768Z,6.5
2022-08-13T10:11:01.833Z,6.9
2022-08-13T10:12:07.946Z,7
2022-08-13T10:13:14.045Z,6.9
2022-08-13T10:14:20.156Z,6.8
2022-08-13T10:15:26.401Z,6.6
2022-08-13T10:16:31.665Z,7.1
2022-08-13T10:17:37.778Z,6.6
2022-08-13T10:18:43.891Z,6.4
2022-08-13T10:19:50.007Z,6.9
2022-08-13T10:20:56.122Z,6.5
2022-08-13T10:22:02.228Z,6.6
2022-08-13T10:23:08.344Z,6.5
2022-08-13T10:24:14.457Z,6.6
2022-08-13T10:25:20.575Z,6.6
2022-08-13T10:26:26.678Z,6.6
2022-08-13T10:27:32.793Z,6.4
2022-08-13T10:28:38.899Z,6.8
2022-08-13T10:29:45.009Z,6.5
2022-08-13T10:30:51.125Z,6.3
2022-08-13T10:31:57.238Z,6.8
2022-08-13T10:33:03.346Z,7
2022-08-13T10:34:09.466Z,6.6
2022-08-13T10:35:15.574Z,6.7
2022-08-13T10:36:21.712Z,6.7
2022-08-13T10:37:27.812Z,6.9
2022-08-13T10:38:33.916Z,6.9
2022-08-13T10:39:40.020Z,6.5
2022-08-13T10:40:46.138Z,6.6
2022-08-13T10:41:52.256Z,6.4
2022-08-13T10:42:58.372Z,6.8
2022-08-13T10:44:04.609Z,6.7
2022-08-13T10:45:09.804Z,6.7
2022-08-13T10:46:15.842Z,7
2022-08-13T10:47:21.881Z,6.5
2022-08-13T10:48:27.918Z,6.7
2022-08-13T10:49:33.945Z,6.8
2022-08-13T10:50:39.982Z,6.4
2022-08-13T10:51:46.002Z,6.8
2022-08-13T10:52:52.044Z,6.4
2022-08-13T10:53:58.070Z,6
2022-08-13T10:55:04.083Z,6.3
2022-08-13T10:56:10.109Z,6.4
2022-08-13T10:57:16.144Z,6.5
2022-08-13T10:58:22.168Z,6.2
2022-08-13T10:59:28.187Z,6.9
2022-08-13T11:00:34.202Z,6.1
2022-08-13T11:01:40.234Z,6.1
2022-08-13T11:02:46.246Z,6
2022-08-13T11:03:52.263Z,6.1
2022-08-13T11:04:58.296Z,5.9
2022-08-13T11:06:04.306Z,6.1
2022-08-13T11:07:10.328Z,6.1
2022-08-13T11:08:16.342Z,6.4
2022-08-13T11:09:22.369Z,6.8
2022-08-13T11:10:28.376Z,6.4
2022-08-13T11:11:34.397Z,7.2
2022-08-13T11:12:40.499Z,6.3
2022-08-13T11:13:46.598Z,6.6
2022-08-13T11:14:52.699Z,6.6
2022-08-13T11:15:58.839Z,6.8
2022-08-13T11:17:04.899Z,6.8
2022-08-13T11:18:10.991Z,6.9
2022-08-13T11:19:17.095Z,6.8
2022-08-13T11:20:23.198Z,6.5
2022-08-13T11:21:29.290Z,7.1
2022-08-13T11:22:35.430Z,7.1
2022-08-13T11:23:41.498Z,6.7
2022-08-13T11:24:47.602Z,7.3
2022-08-13T11:25:53.720Z,7
2022-08-13T11:26:59.944Z,6.9
2022-08-13T11:28:06.190Z,7
2022-08-13T11:29:12.404Z,6.9
2022-08-13T11:30:18.621Z,6.8
2022-08-13T11:31:24.843Z,7.4
2022-08-13T11:32:31.131Z,6.8
2022-08-13T11:33:37.314Z,7.1
2022-08-13T11:34:43.538Z,7.2
2022-08-13T11:35:49.784Z,7
2022-08-13T11:36:56.027Z,6.8
2022-08-13T11:38:02.235Z,7
2022-08-13T11:39:08.475Z,7
2022-08-13T11:40:14.681Z,6.9
2022-08-13T11:42:49.631Z,6.6
2022-08-13T11:43:54.976Z,6.7
2022-08-13T11:45:01.019Z,6.7
2022-08-13T11:46:07.049Z,6.8
2022-08-13T11:47:13.057Z,7.1
2022-08-13T11:48:19.077Z,7.2
2022-08-13T11:49:25.100Z,7
2022-08-13T11:50:31.125Z,7.1
2022-08-13T11:51:37.163Z,6.7
2022-08-13T11:52:43.186Z,7.1
2022-08-13T11:53:49.201Z,6.9
2022-08-13T11:54:55.227Z,6.5
2022-08-13T11:56:01.248Z,6.3
2022-08-13T11:57:07.282Z,6.9
2022-08-13T11:58:13.318Z,6.9
2022-08-13T11:59:19.324Z,6.4
2022-08-13T12:00:25.342Z,6.8
2022-08-13T12:01:31.366Z,6.7
2022-08-13T12:02:37.436Z,6.9
2022-08-13T12:03:43.404Z,6.9
2022-08-13T12:04:49.460Z,6.7
2022-08-13T12:05:55.448Z,6.9
2022-08-13T12:07:01.477Z,7
2022-08-13T12:08:07.502Z,7.1
2022-08-13T12:09:13.509Z,7.2
2022-08-13T12:10:19.521Z,6.7
2022-08-13T12:11:25.639Z,6.7
2022-08-13T12:12:31.737Z,6.9
2022-08-13T12:13:37.825Z,6.7
2022-08-13T12:14:43.950Z,6.7
2022-08-13T12:15:50.034Z,7
2022-08-13T12:16:56.130Z,7
2022-08-13T12:18:02.248Z,6.7
2022-08-13T12:19:08.317Z,6.8
2022-08-13T12:20:14.441Z,7
2022-08-13T12:21:20.556Z,6.7
2022-08-13T12:22:26.655Z,6.8
2022-08-13T12:23:32.739Z,6.5
2022-08-13T12:24:38.859Z,6.8
2022-08-13T12:25:45.073Z,6.7
2022-08-13T12:26:51.299Z,7
2022-08-13T12:27:57.580Z,6.5
2022-08-13T12:29:03.762Z,6.9
2022-08-13T12:30:09.995Z,6.8
2022-08-13T12:31:15.210Z,7.1
2022-08-13T12:32:21.235Z,7
2022-08-13T12:33:27.244Z,6.7
2022-08-13T12:34:33.314Z,7.1
2022-08-13T12:35:39.315Z,6.9
2022-08-13T12:36:45.383Z,6.9
2022-08-13T12:37:51.401Z,7.3
2022-08-13T12:38:57.455Z,7.1
2022-08-13T12:40:03.457Z,7.2
2022-08-13T12:41:09.484Z,7.1
2022-08-13T12:42:15.525Z,7
2022-08-13T12:43:21.560Z,6.9
2022-08-13T12:44:27.586Z,6.8
2022-08-13T12:45:33.622Z,6.8
2022-08-13T12:46:39.658Z,7.3
2022-08-13T12:47:45.683Z,6.8
2022-08-13T12:48:51.730Z,7
2022-08-13T12:49:57.745Z,7.2
2022-08-13T12:51:03.803Z,7.2
2022-08-13T12:52:09.840Z,7.3
2022-08-13T12:53:15.870Z,7.1
2022-08-13T12:54:21.873Z,7.3
2022-08-13T12:55:27.938Z,6.8
2022-08-13T12:56:33.972Z,7.2
2022-08-13T12:57:39.966Z,7.4
2022-08-13T12:58:46.080Z,7.3
2022-08-13T12:59:52.181Z,8.5
2022-08-13T13:00:58.271Z,6.8
2022-08-13T13:02:04.402Z,6.9
2022-08-13T13:03:10.471Z,6.7
2022-08-13T13:04:16.584Z,6.7
2022-08-13T13:05:22.677Z,6.9
2022-08-13T13:06:28.763Z,6.7
2022-08-13T13:07:34.864Z,7
2022-08-13T13:08:40.966Z,7.5
2022-08-13T13:09:47.039Z,7
2022-08-13T13:10:53.159Z,6.7
2022-08-13T13:11:59.223Z,6.9
2022-08-13T13:13:05.465Z,7.1
2022-08-13T13:14:11.677Z,7
2022-08-13T13:15:17.865Z,6.9
2022-08-13T13:16:24.079Z,7.2
2022-08-13T13:17:30.296Z,7
2022-08-13T13:18:36.509Z,7.2
2022-08-13T13:19:42.734Z,7.1
2022-08-13T13:20:48.962Z,7.1
2022-08-13T13:21:55.183Z,7.4
2022-08-13T13:23:01.378Z,7.6
2022-08-13T13:24:07.604Z,7.3
2022-08-13T13:25:13.843Z,7.4
2022-08-13T13:26:20.067Z,7.6
2022-08-13T13:28:54.996Z,6.8
2022-08-13T13:30:00.352Z,7.1
2022-08-13T13:31:06.378Z,7.3
2022-08-13T13:32:12.408Z,7.1
2022-08-13T13:33:18.434Z,6.9
2022-08-13T13:34:24.487Z,7.1
2022-08-13T13:35:30.504Z,7
2022-08-13T13:36:36.548Z,6.9
2022-08-13T13:37:42.572Z,7
2022-08-13T13:38:48.623Z,7.2
2022-08-13T13:39:54.646Z,7.2
2022-08-13T13:41:00.694Z,7.1
2022-08-13T13:42:06.723Z,7.9
2022-08-13T13:43:12.722Z,7
2022-08-13T13:44:18.756Z,7.1
2022-08-13T13:45:24.827Z,7.1
2022-08-13T13:46:30.825Z,7.1
2022-08-13T13:47:36.899Z,6.8
2022-08-13T13:48:42.903Z,7
2022-08-13T13:49:48.975Z,7.3
2022-08-13T13:50:55.003Z,7.1
2022-08-13T13:52:01.015Z,7.4
2022-08-13T13:53:07.024Z,7.1
2022-08-13T13:54:13.083Z,7
2022-08-13T13:55:19.115Z,7.6
2022-08-13T13:56:25.125Z,8.1
2022-08-13T13:57:31.252Z,7.5
2022-08-13T13:58:37.359Z,7.4
2022-08-13T13:59:43.467Z,7.2
2022-08-13T14:00:49.575Z,7
2022-08-13T14:01:55.711Z,6.9
2022-08-13T14:03:01.793Z,6.8
2022-08-13T14:04:07.891Z,7
2022-08-13T14:05:13.999Z,6.6
2022-08-13T14:06:20.129Z,7.6
2022-08-13T14:07:26.252Z,7.4
2022-08-13T14:08:32.362Z,7.2
2022-08-13T14:09:38.449Z,7.4
2022-08-13T14:10:44.541Z,7.4
2022-08-13T14:11:50.781Z,7.9
2022-08-13T14:12:57.024Z,8.6
2022-08-13T14:14:03.248Z,9.89
2022-08-13T14:15:08.447Z,7
2022-08-13T14:16:14.461Z,7.2
2022-08-13T14:17:20.497Z,7.6
2022-08-13T14:18:26.569Z,7.1
2022-08-13T14:19:32.555Z,6.3
2022-08-13T14:20:38.589Z,6.5
2022-08-13T14:21:44.628Z,6.6
2022-08-13T14:22:50.698Z,6.3
2022-08-13T14:23:56.686Z,6.7
2022-08-13T14:25:02.730Z,6.7
2022-08-13T14:26:08.772Z,6.2
2022-08-13T14:27:14.776Z,6.3
2022-08-13T14:28:20.798Z,6
2022-08-13T14:29:26.851Z,6.3
2022-08-13T14:30:32.862Z,6.1
2022-08-13T14:31:38.908Z,6.3
2022-08-13T14:32:44.916Z,5.9
2022-08-13T14:33:50.930Z,6.5
2022-08-13T14:34:56.964Z,6.6
2022-08-13T14:36:02.975Z,6.1
2022-08-13T14:37:08.981Z,5.8
2022-08-13T14:38:15.028Z,5.8
2022-08-13T14:39:21.020Z,5.9
2022-08-13T14:40:27.053Z,6.2
2022-08-13T14:41:33.078Z,6.1
2022-08-13T14:42:39.141Z,5.8
2022-08-13T14:43:45.224Z,6.5
2022-08-13T14:44:51.315Z,6
2022-08-13T14:45:57.411Z,6.2
2022-08-13T14:47:03.495Z,5.9
2022-08-13T14:48:09.586Z,6.5
2022-08-13T14:49:15.688Z,6.3
2022-08-13T14:50:21.775Z,6.3
2022-08-13T14:51:27.833Z,6.3
2022-08-13T14:52:33.911Z,6.3
2022-08-13T14:53:40.023Z,6.1
2022-08-13T14:54:46.079Z,6
2022-08-13T14:55:52.190Z,5.8
2022-08-13T14:56:58.412Z,6.2
2022-08-13T14:58:04.597Z,6
2022-08-13T14:59:10.816Z,6.4
2022-08-13T15:00:17.000Z,6.2
2022-08-13T15:01:23.223Z,6.1
2022-08-13T15:02:29.422Z,6.2
2022-08-13T15:03:35.638Z,6
2022-08-13T15:04:41.837Z,6.2
2022-08-13T15:05:48.056Z,6.3
2022-08-13T15:06:54.305Z,6
2022-08-13T15:08:00.495Z,6
2022-08-13T15:09:06.716Z,6.2
2022-08-13T15:10:12.956Z,6
2022-08-13T15:12:47.843Z,6.2
2022-08-13T15:13:53.182Z,6
2022-08-13T15:14:59.210Z,6.2
2022-08-13T15:16:05.258Z,6.2
2022-08-13T15:17:11.271Z,6.1
2022-08-13T15:18:17.275Z,6
2022-08-13T15:19:23.290Z,6.4
2022-08-13T15:20:29.339Z,6.2
2022-08-13T15:21:35.372Z,5.9
2022-08-13T15:22:41.410Z,6.2
2022-08-13T15:23:47.461Z,6.6
2022-08-13T15:24:53.464Z,6.3
2022-08-13T15:25:59.509Z,6